createdAt,value
2023-04-15T00:01:50.497Z,12.43
2023-04-15T00:08:47.279Z,12.44
2023-04-15T00:46:01.144Z,12.35
2023-04-15T00:48:33.644Z,12.35
2023-04-15T00:51:07.397Z,12.35
2023-04-15T00:53:39.878Z,12.34
2023-04-15T00:56:14.428Z,12.34
2023-04-15T00:58:46.921Z,12.33
2023-04-15T01:01:22.547Z,12.34
2023-04-15T01:03:59.797Z,12.34
2023-04-15T01:06:33.635Z,12.34
2023-04-15T01:09:06.606Z,12.33
2023-04-15T01:11:39.913Z,12.33
2023-04-15T01:14:18.488Z,12.33
2023-04-15T01:16:51.090Z,12.31
2023-04-15T01:19:24.487Z,12.32
2023-04-15T01:21:58.812Z,12.32
2023-04-15T01:24:36.204Z,12.32
2023-04-15T01:53:12.643Z,12.27
2023-04-15T01:55:52.595Z,12.26
2023-04-15T01:58:25.237Z,12.25
2023-04-15T02:01:00.398Z,12.25
2023-04-15T02:03:33.116Z,12.26
2023-04-15T02:06:08.303Z,12.24
2023-04-15T02:08:41.128Z,12.24
2023-04-15T02:11:16.135Z,12.25
2023-04-15T02:18:46.376Z,12.22
2023-04-15T02:29:55.894Z,12.20
2023-04-15T02:32:29.266Z,12.21
2023-04-15T02:35:07.096Z,12.21
2023-04-15T02:37:46.725Z,12.20
2023-04-15T02:40:19.360Z,12.18
2023-04-15T02:42:53.287Z,12.17
2023-04-15T02:45:32.271Z,12.19
2023-04-15T02:48:08.918Z,12.17
2023-04-15T02:50:41.952Z,12.17
2023-04-15T02:53:17.710Z,12.17
2023-04-15T02:55:50.104Z,12.17
2023-04-15T02:58:22.453Z,12.15
2023-04-15T03:00:56.213Z,12.15
2023-04-15T03:03:31.215Z,12.15
2023-04-15T03:06:03.723Z,12.15
2023-04-15T03:08:36.591Z,12.14
2023-04-15T03:11:10.387Z,12.14
2023-04-15T03:13:44.512Z,12.13
2023-04-15T03:16:29.618Z,12.13
2023-04-15T03:19:03.947Z,12.11
2023-04-15T03:21:42.026Z,12.13
2023-04-15T03:24:19.248Z,12.11
2023-04-15T03:26:52.343Z,12.12
2023-04-15T03:29:28.004Z,12.12
2023-04-15T03:43:08.884Z,12.09
2023-04-15T03:45:44.392Z,12.09
2023-04-15T03:48:18.981Z,12.08
2023-04-15T03:50:54.517Z,12.08
2023-04-15T03:53:27.077Z,12.07
2023-04-15T03:55:59.686Z,12.07
2023-04-15T03:58:32.048Z,12.07
2023-04-15T04:01:05.191Z,12.07
2023-04-15T04:03:37.939Z,12.07
2023-04-15T04:06:13.874Z,12.06
2023-04-15T04:08:48.922Z,12.06
2023-04-15T04:11:21.593Z,12.06
2023-04-15T04:13:54.262Z,12.07
2023-04-15T04:16:26.746Z,12.05
2023-04-15T04:18:59.424Z,12.04
2023-04-15T04:21:34.163Z,12.04
2023-04-15T04:24:06.636Z,12.04
2023-04-15T04:26:39.086Z,12.04
2023-04-15T04:29:13.884Z,12.03
2023-04-15T04:31:48.743Z,12.03
2023-04-15T04:34:21.190Z,12.03
2023-04-15T04:36:55.843Z,12.02
2023-04-15T04:39:28.267Z,12.02
2023-04-15T04:42:03.042Z,12.02
2023-04-15T04:44:35.463Z,11.99
2023-04-15T04:47:07.800Z,12.00
2023-04-15T04:49:41.178Z,12.01
2023-04-15T04:52:13.496Z,12.00
2023-04-15T04:54:52.735Z,11.98
2023-04-15T04:57:25.283Z,11.98
2023-04-15T04:59:57.745Z,11.98
2023-04-15T05:02:33.814Z,11.98
2023-04-15T05:05:11.296Z,11.96
2023-04-15T05:07:43.791Z,11.97
2023-04-15T05:10:18.098Z,11.97
2023-04-15T05:12:52.519Z,11.96
2023-04-15T05:15:25.408Z,11.96
2023-04-15T05:17:57.891Z,11.96
2023-04-15T05:20:31.883Z,11.95
2023-04-15T05:23:04.496Z,11.95
2023-04-15T05:25:37.245Z,11.94
2023-04-15T05:28:09.728Z,11.94
2023-04-15T05:30:45.207Z,11.94
2023-04-15T05:33:17.773Z,11.95
2023-04-15T05:43:26.634Z,11.93
2023-04-15T05:46:01.411Z,11.93
2023-04-15T05:48:33.909Z,11.92
2023-04-15T05:51:06.582Z,11.91
2023-04-15T05:53:41.696Z,11.93
2023-04-15T05:56:14.642Z,11.93
2023-04-15T05:58:50.518Z,11.92
2023-04-15T06:01:23.702Z,11.93
2023-04-15T06:03:57.298Z,11.92
2023-04-15T06:06:33.710Z,11.92
2023-04-15T06:09:06.341Z,11.92
2023-04-15T06:11:38.900Z,11.91
2023-04-15T06:14:11.660Z,11.91
2023-04-15T06:16:44.161Z,11.90
2023-04-15T06:19:16.708Z,11.89
2023-04-15T06:21:52.646Z,11.91
2023-04-15T06:24:26.444Z,11.90
2023-04-15T06:26:59.105Z,11.90
2023-04-15T06:29:31.532Z,11.90
2023-04-15T06:32:04.151Z,11.88
2023-04-15T06:34:39.109Z,11.89
2023-04-15T06:37:15.950Z,11.90
2023-04-15T06:39:48.501Z,11.92
2023-04-15T06:42:21.109Z,11.92
2023-04-15T06:44:54.488Z,11.93
2023-04-15T06:47:29.038Z,11.93
2023-04-15T06:50:01.866Z,11.93
2023-04-15T06:52:36.571Z,11.94
2023-04-15T06:55:11.531Z,11.96
2023-04-15T06:57:44.096Z,11.95
2023-04-15T07:00:19.178Z,11.95
2023-04-15T07:02:51.678Z,11.95
2023-04-15T07:05:30.589Z,11.96
2023-04-15T07:08:03.293Z,11.95
2023-04-15T07:10:37.537Z,11.96
2023-04-15T07:13:09.822Z,11.96
2023-04-15T07:15:42.337Z,11.95
2023-04-15T07:18:14.705Z,11.95
2023-04-15T07:20:47.138Z,11.95
2023-04-15T07:23:19.546Z,11.96
2023-04-15T07:25:53.146Z,11.94
2023-04-15T07:28:25.491Z,11.94
2023-04-15T07:30:57.992Z,11.94
2023-04-15T07:33:31.209Z,11.94
2023-04-15T07:36:03.809Z,11.94
2023-04-15T07:38:36.239Z,11.95
2023-04-15T07:41:09.253Z,11.96
2023-04-15T07:43:41.684Z,11.95
2023-04-15T07:46:14.396Z,11.95
2023-04-15T07:48:47.204Z,11.97
2023-04-15T07:51:21.268Z,11.96
2023-04-15T07:53:54.149Z,11.97
2023-04-15T07:56:28.966Z,11.98
2023-04-15T07:59:04.841Z,11.99
2023-04-15T08:01:37.921Z,11.99
2023-04-15T08:04:11.290Z,12.00
2023-04-15T08:06:44.072Z,12.00
2023-04-15T08:20:49.792Z,12.00
2023-04-15T08:26:13.171Z,12.00
2023-04-15T08:31:34.277Z,12.03
2023-04-15T08:34:13.973Z,12.03
2023-04-15T08:36:46.660Z,12.04
2023-04-15T08:39:19.351Z,12.05
2023-04-15T08:42:03.890Z,12.04
2023-04-15T08:44:40.305Z,12.05
2023-04-15T08:47:17.415Z,12.04
2023-04-15T08:49:54.206Z,12.03
2023-04-15T08:52:29.220Z,12.05
2023-04-15T08:55:08.560Z,12.02
2023-04-15T09:06:22.286Z,12.07
2023-04-15T09:08:55.287Z,12.07
2023-04-15T09:44:41.964Z,12.12
2023-04-15T09:46:59.345Z,12.15
2023-04-15T09:49:56.434Z,12.15
2023-04-15T09:52:29.724Z,12.16
2023-04-15T09:55:13.302Z,12.17
2023-04-15T09:57:48.380Z,12.14
2023-04-15T10:00:21.838Z,12.17
2023-04-15T10:02:54.860Z,12.19
2023-04-15T10:05:31.332Z,12.21
2023-04-15T10:24:40.059Z,12.26
2023-04-15T10:27:48.669Z,12.30
2023-04-15T10:58:43.443Z,12.39
2023-04-15T11:01:46.451Z,12.40
2023-04-15T11:04:54.078Z,12.43
2023-04-15T11:07:43.282Z,12.45
2023-04-15T11:10:19.976Z,12.46
2023-04-15T11:16:47.447Z,12.50
2023-04-15T11:19:22.253Z,12.53
2023-04-15T11:21:54.656Z,12.54
2023-04-15T11:24:29.352Z,12.55
2023-04-15T11:27:02.481Z,12.55
2023-04-15T11:29:34.874Z,12.57
2023-04-15T11:32:09.507Z,12.59
2023-04-15T11:34:53.956Z,12.61
2023-04-15T11:37:30.502Z,12.62
2023-04-15T11:40:36.384Z,12.61
2023-04-15T12:07:59.905Z,12.75
2023-04-15T12:10:32.629Z,12.74
2023-04-15T12:13:07.839Z,12.74
2023-04-15T12:15:40.460Z,12.76
2023-04-15T12:18:20.006Z,12.75
2023-04-15T12:25:48.217Z,12.76
2023-04-15T12:38:31.940Z,12.84
2023-04-15T12:41:06.674Z,12.86
2023-04-15T12:43:39.242Z,12.90
2023-04-15T12:46:15.654Z,12.89
2023-04-15T12:48:48.111Z,12.89
2023-04-15T13:18:35.885Z,12.74
2023-04-15T13:21:08.288Z,12.75
2023-04-15T13:23:43.685Z,12.78
2023-04-15T13:26:19.170Z,12.79
2023-04-15T13:28:53.131Z,12.84
2023-04-15T13:31:27.413Z,12.90
2023-04-15T13:34:02.770Z,12.96
2023-04-15T13:36:36.438Z,13.04
2023-04-15T14:03:34.987Z,14.10
2023-04-15T14:06:07.614Z,14.11
2023-04-15T14:08:44.229Z,14.10
2023-04-15T14:30:41.199Z,13.72
2023-04-15T14:33:14.883Z,13.65
2023-04-15T14:35:47.577Z,13.63
2023-04-15T14:38:22.678Z,13.60
2023-04-15T14:40:55.368Z,13.57
2023-04-15T14:43:34.748Z,13.59
2023-04-15T15:00:18.589Z,14.09
2023-04-15T15:10:16.242Z,14.75
2023-04-15T15:12:48.678Z,14.89
2023-04-15T15:15:28.959Z,15.08
2023-04-15T15:18:09.083Z,15.31
2023-04-15T15:20:43.594Z,15.55
2023-04-15T15:23:16.106Z,15.81
2023-04-15T15:25:48.449Z,16.09
2023-04-15T15:28:21.940Z,16.37
2023-04-15T15:30:54.243Z,16.53
2023-04-15T15:33:32.029Z,16.55
2023-04-15T15:36:04.583Z,16.39
2023-04-15T15:38:37.097Z,16.28
2023-04-15T15:41:09.429Z,16.21
2023-04-15T15:43:42.064Z,16.28
2023-04-15T15:46:14.821Z,16.46
2023-04-15T15:48:47.259Z,16.59
2023-04-15T15:51:21.032Z,16.69
2023-04-15T15:53:53.584Z,16.76
2023-04-15T15:56:27.029Z,16.86
2023-04-15T15:59:02.611Z,16.90
2023-04-15T16:01:38.138Z,17.03
2023-04-15T16:04:10.985Z,17.18
2023-04-15T16:06:45.059Z,17.31
2023-04-15T16:19:13.985Z,17.74
2023-04-15T16:30:04.711Z,17.67
2023-04-15T16:32:39.720Z,17.62
2023-04-15T16:35:14.620Z,17.55
2023-04-15T16:37:49.106Z,17.46
2023-04-15T16:40:21.502Z,17.38
2023-04-15T16:42:56.340Z,17.30
2023-04-15T16:45:28.752Z,17.22
2023-04-15T16:48:01.264Z,17.13
2023-04-15T16:50:33.990Z,17.06
2023-04-15T16:53:06.980Z,16.98
2023-04-15T16:55:40.121Z,16.91
2023-04-15T16:58:13.464Z,16.84
2023-04-15T17:00:46.215Z,16.75
2023-04-15T17:03:18.769Z,16.70
2023-04-15T17:05:51.392Z,16.62
2023-04-15T17:08:23.871Z,16.56
2023-04-15T17:10:57.921Z,16.48
2023-04-15T17:24:53.664Z,16.15
2023-04-15T17:27:28.791Z,16.09
2023-04-15T17:30:03.502Z,16.04
2023-04-15T17:32:36.164Z,15.98
2023-04-15T17:35:11.954Z,15.91
2023-04-15T17:37:46.109Z,15.85
2023-04-15T17:40:21.379Z,15.80
2023-04-15T17:42:54.001Z,15.74
2023-04-15T17:45:26.575Z,15.67
2023-04-15T17:48:03.609Z,15.61
2023-04-15T18:06:14.113Z,15.20
2023-04-15T18:08:46.627Z,15.14
2023-04-15T18:11:27.673Z,15.08
2023-04-15T18:14:04.954Z,15.04
2023-04-15T18:16:40.552Z,14.99
2023-04-15T18:19:18.489Z,14.95
2023-04-15T18:21:53.367Z,14.89
2023-04-15T18:24:28.364Z,14.86
2023-04-15T18:27:03.812Z,14.81
2023-04-15T19:16:05.279Z,14.20
2023-04-15T19:18:42.450Z,14.17
2023-04-15T19:36:07.146Z,14.02
2023-04-15T19:43:35.917Z,14.05
2023-04-15T19:50:41.845Z,13.99
2023-04-15T20:00:44.388Z,13.92
2023-04-15T20:29:37.803Z,13.82
2023-04-15T20:32:11.924Z,13.81
2023-04-15T20:34:47.417Z,13.80
2023-04-15T20:37:20.445Z,13.79
2023-04-15T20:39:53.005Z,13.77
2023-04-15T20:42:28.927Z,13.77
2023-04-15T20:52:14.803Z,13.75
2023-04-15T20:54:47.290Z,13.75
2023-04-15T20:57:20.950Z,13.73
2023-04-15T20:59:53.429Z,13.74
2023-04-15T21:02:29.777Z,13.72
2023-04-15T21:05:02.583Z,13.73
2023-04-15T21:07:36.608Z,13.71
2023-04-15T21:23:13.008Z,13.68
2023-04-15T21:25:45.765Z,13.64
2023-04-15T21:28:18.166Z,13.64
2023-04-15T21:30:51.007Z,13.63
2023-04-15T21:33:23.916Z,13.65
2023-04-15T21:35:58.878Z,13.64
2023-04-15T21:38:34.254Z,13.64
2023-04-15T21:41:10.653Z,13.64
2023-04-15T21:43:45.461Z,13.62
2023-04-15T21:46:23.203Z,13.61
2023-04-15T21:48:57.774Z,13.61
2023-04-15T21:51:32.942Z,13.60
2023-04-15T21:54:06.648Z,13.61
2023-04-15T21:56:46.621Z,13.59
2023-04-15T21:59:21.355Z,13.58
2023-04-15T22:02:14.225Z,13.59
2023-04-15T22:04:46.830Z,13.58
2023-04-15T22:07:22.659Z,13.57
2023-04-15T22:13:36.643Z,13.57
2023-04-15T22:16:09.575Z,13.57
2023-04-15T22:18:45.346Z,13.57
2023-04-15T22:21:18.977Z,13.56
2023-04-15T22:23:52.229Z,13.56
2023-04-15T22:26:27.726Z,13.56
2023-04-15T22:29:00.135Z,13.55
2023-04-15T22:31:40.752Z,13.55
2023-04-15T22:34:20.774Z,13.55
2023-04-15T23:11:00.210Z,13.49
2023-04-15T23:13:34.193Z,13.47
2023-04-15T23:16:07.106Z,13.49
2023-04-15T23:18:39.636Z,13.47
2023-04-15T23:21:13.415Z,13.47
2023-04-15T23:23:49.386Z,13.47
2023-04-15T23:26:21.773Z,13.46
2023-04-15T23:28:58.816Z,13.46
2023-04-15T23:31:31.529Z,13.46
2023-04-15T23:34:06.215Z,13.47
2023-04-15T23:36:38.688Z,13.46
2023-04-15T23:39:11.623Z,13.44
2023-04-15T23:41:44.166Z,13.46
2023-04-15T23:44:16.636Z,13.46
2023-04-15T23:46:56.646Z,13.44
2023-04-15T23:49:36.745Z,13.47
2023-04-15T23:52:11.660Z,13.46
2023-04-15T23:54:44.052Z,13.46
2023-04-15T23:57:21.057Z,13.46
